createdAt,value
2024-02-13T00:01:22.109Z,100.00
2024-02-13T00:03:48.723Z,100.00
2024-02-13T00:06:18.614Z,100.00
2024-02-13T00:08:46.297Z,100.00
2024-02-13T00:11:14.631Z,100.00
2024-02-13T00:13:44.289Z,100.00
2024-02-13T00:16:18.547Z,100.00
2024-02-13T00:18:47.673Z,100.00
2024-02-13T00:21:16.443Z,100.00
2024-02-13T00:23:43.324Z,100.00
2024-02-13T00:26:10.336Z,100.00
2024-02-13T00:28:38.366Z,100.00
2024-02-13T00:31:10.424Z,100.00
2024-02-13T00:33:37.060Z,100.00
2024-02-13T00:36:04.701Z,100.00
2024-02-13T00:38:31.272Z,100.00
2024-02-13T00:40:57.837Z,100.00
2024-02-13T00:43:24.669Z,100.00
2024-02-13T00:45:53.650Z,100.00
2024-02-13T00:48:25.054Z,100.00
2024-02-13T00:50:52.892Z,100.00
2024-02-13T00:53:22.536Z,100.00
2024-02-13T00:55:50.659Z,100.00
2024-02-13T00:58:17.292Z,100.00
2024-02-13T01:00:43.979Z,100.00
2024-02-13T01:03:13.256Z,100.00
2024-02-13T01:05:42.233Z,100.00
2024-02-13T01:08:09.289Z,100.00
2024-02-13T01:10:35.820Z,100.00
2024-02-13T01:13:02.349Z,100.00
2024-02-13T01:15:29.817Z,100.00
2024-02-13T01:17:56.486Z,100.00
2024-02-13T01:20:25.345Z,100.00
2024-02-13T01:22:54.872Z,100.00
2024-02-13T01:25:21.398Z,100.00
2024-02-13T01:27:48.355Z,100.00
2024-02-13T01:30:15.146Z,100.00
2024-02-13T01:32:44.880Z,100.00
2024-02-13T01:35:12.618Z,100.00
2024-02-13T01:37:40.807Z,100.00
2024-02-13T01:40:08.391Z,100.00
2024-02-13T01:42:41.091Z,100.00
2024-02-13T01:45:08.492Z,100.00
2024-02-13T01:47:37.080Z,100.00
2024-02-13T01:50:07.016Z,100.00
2024-02-13T01:52:35.902Z,100.00
2024-02-13T01:55:05.891Z,100.00
2024-02-13T01:57:36.396Z,100.00
2024-02-13T02:00:06.788Z,100.00
2024-02-13T02:02:36.476Z,100.00
2024-02-13T02:05:03.037Z,100.00
2024-02-13T02:07:31.863Z,100.00
2024-02-13T02:10:01.634Z,100.00
2024-02-13T02:12:28.093Z,100.00
2024-02-13T02:14:54.782Z,100.00
2024-02-13T02:17:21.324Z,100.00
2024-02-13T02:19:47.809Z,100.00
2024-02-13T02:22:14.292Z,100.00
2024-02-13T02:24:40.747Z,100.00
2024-02-13T02:27:07.310Z,100.00
2024-02-13T02:29:34.254Z,100.00
2024-02-13T02:32:01.011Z,100.00
2024-02-13T02:34:27.467Z,100.00
2024-02-13T02:36:53.983Z,100.00
2024-02-13T02:39:20.649Z,100.00
2024-02-13T02:41:53.246Z,100.00
2024-02-13T02:44:22.935Z,100.00
2024-02-13T02:46:51.807Z,100.00
2024-02-13T02:49:20.225Z,100.00
2024-02-13T02:51:47.920Z,100.00
2024-02-13T02:54:14.826Z,100.00
2024-02-13T02:56:44.672Z,100.00
2024-02-13T02:59:14.029Z,100.00
2024-02-13T03:01:42.590Z,100.00
2024-02-13T03:04:11.974Z,100.00
2024-02-13T03:06:42.117Z,100.00
2024-02-13T03:09:11.274Z,100.00
2024-02-13T03:11:40.206Z,100.00
2024-02-13T03:14:06.743Z,100.00
2024-02-13T03:16:36.097Z,100.00
2024-02-13T03:19:04.420Z,100.00
2024-02-13T03:21:38.889Z,100.00
2024-02-13T03:24:08.114Z,100.00
2024-02-13T03:26:37.260Z,100.00
2024-02-13T03:29:03.856Z,100.00
2024-02-13T03:31:30.320Z,100.00
2024-02-13T03:33:56.993Z,100.00
2024-02-13T03:36:23.539Z,100.00
2024-02-13T03:38:54.522Z,100.00
2024-02-13T03:41:21.734Z,100.00
2024-02-13T03:43:50.464Z,100.00
2024-02-13T03:46:17.023Z,100.00
2024-02-13T03:48:43.596Z,100.00
2024-02-13T03:51:12.604Z,100.00
2024-02-13T03:53:41.462Z,100.00
2024-02-13T03:56:09.229Z,100.00
2024-02-13T03:58:36.161Z,100.00
2024-02-13T04:01:04.969Z,100.00
2024-02-13T04:03:33.946Z,100.00
2024-02-13T04:06:02.905Z,100.00
2024-02-13T04:08:31.941Z,100.00
2024-02-13T04:10:58.723Z,100.00
2024-02-13T04:13:27.491Z,100.00
2024-02-13T04:15:56.801Z,100.00
2024-02-13T04:18:25.803Z,100.00
2024-02-13T04:20:52.379Z,100.00
2024-02-13T04:23:18.903Z,100.00
2024-02-13T04:25:50.351Z,100.00
2024-02-13T04:28:21.585Z,100.00
2024-02-13T04:30:48.803Z,100.00
2024-02-13T04:33:15.532Z,100.00
2024-02-13T04:35:42.108Z,100.00
2024-02-13T04:38:10.554Z,100.00
2024-02-13T04:40:42.615Z,100.00
2024-02-13T04:43:11.174Z,100.00
2024-02-13T04:45:39.940Z,100.00
2024-02-13T04:48:09.532Z,100.00
2024-02-13T04:50:36.108Z,100.00
2024-02-13T04:53:03.987Z,100.00
2024-02-13T04:55:35.367Z,100.00
2024-02-13T04:58:05.566Z,100.00
2024-02-13T05:00:38.229Z,100.00
2024-02-13T05:03:18.203Z,100.00
2024-02-13T05:06:03.760Z,100.00
2024-02-13T05:08:31.534Z,100.00
2024-02-13T05:10:58.054Z,100.00
2024-02-13T05:13:24.613Z,100.00
2024-02-13T05:15:51.474Z,100.00
2024-02-13T05:18:24.286Z,100.00
2024-02-13T05:20:51.288Z,100.00
2024-02-13T05:23:21.801Z,100.00
2024-02-13T05:25:49.829Z,100.00
2024-02-13T05:28:17.099Z,100.00
2024-02-13T05:30:43.665Z,100.00
2024-02-13T05:33:13.003Z,100.00
2024-02-13T05:35:40.125Z,100.00
2024-02-13T05:38:10.688Z,100.00
2024-02-13T05:40:39.615Z,100.00
2024-02-13T05:43:08.347Z,100.00
2024-02-13T05:45:35.600Z,100.00
2024-02-13T05:48:07.084Z,100.00
2024-02-13T05:50:35.904Z,100.00
2024-02-13T05:53:02.583Z,100.00
2024-02-13T05:55:29.590Z,100.00
2024-02-13T05:57:56.124Z,100.00
2024-02-13T06:00:25.602Z,100.00
2024-02-13T06:03:02.137Z,100.00
2024-02-13T06:05:31.648Z,100.00
2024-02-13T06:07:58.282Z,100.00
2024-02-13T06:10:25.935Z,100.00
2024-02-13T06:12:52.440Z,100.00
2024-02-13T06:15:18.901Z,100.00
2024-02-13T06:17:45.715Z,100.00
2024-02-13T06:20:13.861Z,100.00
2024-02-13T06:22:41.036Z,100.00
2024-02-13T06:25:09.961Z,100.00
2024-02-13T06:27:36.620Z,100.00
2024-02-13T06:30:06.133Z,100.00
2024-02-13T06:32:32.696Z,100.00
2024-02-13T06:34:59.309Z,100.00
2024-02-13T06:37:28.119Z,100.00
2024-02-13T06:39:59.565Z,100.00
2024-02-13T06:42:26.032Z,100.00
2024-02-13T06:44:55.136Z,100.00
2024-02-13T06:47:27.169Z,100.00
2024-02-13T06:49:56.005Z,100.00
2024-02-13T06:52:22.957Z,100.00
2024-02-13T06:54:50.883Z,100.00
2024-02-13T06:57:17.875Z,100.00
2024-02-13T06:59:44.433Z,100.00
2024-02-13T07:02:11.435Z,100.00
2024-02-13T07:04:39.016Z,100.00
2024-02-13T07:07:19.422Z,100.00
2024-02-13T07:09:54.770Z,100.00
2024-02-13T07:12:23.653Z,100.00
2024-02-13T07:14:54.057Z,100.00
2024-02-13T07:17:20.572Z,100.00
2024-02-13T07:19:47.274Z,100.00
2024-02-13T07:22:18.635Z,100.00
2024-02-13T07:24:45.678Z,100.00
2024-02-13T07:27:17.433Z,100.00
2024-02-13T07:29:46.318Z,100.00
2024-02-13T07:32:13.622Z,100.00
2024-02-13T07:34:43.784Z,100.00
2024-02-13T07:37:10.492Z,100.00
2024-02-13T07:39:37.013Z,100.00
2024-02-13T07:42:06.289Z,100.00
2024-02-13T07:44:33.102Z,100.00
2024-02-13T07:46:59.745Z,100.00
2024-02-13T07:49:28.664Z,100.00
2024-02-13T07:51:57.622Z,100.00
2024-02-13T07:54:29.694Z,100.00
2024-02-13T07:56:59.429Z,100.00
2024-02-13T07:59:30.610Z,100.00
2024-02-13T08:01:58.487Z,100.00
2024-02-13T08:04:27.505Z,100.00
2024-02-13T08:06:59.447Z,100.00
2024-02-13T08:09:25.970Z,100.00
2024-02-13T08:11:55.201Z,100.00
2024-02-13T08:14:21.812Z,100.00
2024-02-13T08:16:50.129Z,100.00
2024-02-13T08:19:23.950Z,100.00
2024-02-13T08:21:50.510Z,100.00
2024-02-13T08:24:18.107Z,100.00
2024-02-13T08:26:46.064Z,100.00
2024-02-13T08:29:12.568Z,100.00
2024-02-13T08:31:41.460Z,100.00
2024-02-13T08:34:09.115Z,100.00
2024-02-13T08:36:38.207Z,100.00
2024-02-13T08:39:07.188Z,100.00
2024-02-13T08:41:35.801Z,100.00
2024-02-13T08:44:04.637Z,100.00
2024-02-13T08:46:31.431Z,100.00
2024-02-13T08:49:02.138Z,100.00
2024-02-13T08:51:29.379Z,100.00
2024-02-13T08:53:57.451Z,100.00
2024-02-13T08:56:24.092Z,100.00
2024-02-13T08:58:53.959Z,100.00
2024-02-13T09:01:23.235Z,100.00
2024-02-13T09:03:52.062Z,100.00
2024-02-13T09:06:21.716Z,100.00
2024-02-13T09:08:53.257Z,100.00
2024-02-13T09:11:20.163Z,100.00
2024-02-13T09:13:47.165Z,100.00
2024-02-13T09:16:17.164Z,100.00
2024-02-13T09:18:43.934Z,100.00
2024-02-13T09:21:11.568Z,100.00
2024-02-13T09:23:38.462Z,100.00
2024-02-13T09:26:05.350Z,100.00
2024-02-13T09:28:32.312Z,100.00
2024-02-13T09:31:01.222Z,100.00
2024-02-13T09:33:30.884Z,100.00
2024-02-13T09:35:59.910Z,100.00
2024-02-13T09:38:27.013Z,100.00
2024-02-13T09:40:53.808Z,100.00
2024-02-13T09:43:23.717Z,100.00
2024-02-13T09:45:50.384Z,99.02
2024-02-13T09:48:26.908Z,99.36
2024-02-13T09:50:59.484Z,99.34
2024-02-13T09:53:28.346Z,100.00
2024-02-13T09:55:58.494Z,94.57
2024-02-13T09:58:26.011Z,98.56
2024-02-13T10:00:59.638Z,99.06
2024-02-13T10:03:30.159Z,95.26
2024-02-13T10:05:57.406Z,92.11
2024-02-13T10:08:29.338Z,97.17
2024-02-13T10:11:03.555Z,95.94
2024-02-13T10:13:43.724Z,95.72
2024-02-13T10:16:30.196Z,88.80
2024-02-13T10:18:58.974Z,84.10
2024-02-13T10:21:30.558Z,86.64
2024-02-13T10:24:08.037Z,88.17
2024-02-13T10:26:35.947Z,87.00
2024-02-13T10:29:02.568Z,87.67
2024-02-13T10:31:35.882Z,82.23
2024-02-13T10:34:06.542Z,87.05
2024-02-13T10:36:36.268Z,80.25
2024-02-13T10:39:10.247Z,87.28
2024-02-13T10:41:45.075Z,79.43
2024-02-13T10:44:15.388Z,82.88
2024-02-13T10:46:43.674Z,86.01
2024-02-13T10:49:32.353Z,82.17
2024-02-13T10:52:00.443Z,80.57
2024-02-13T10:54:27.600Z,80.74
2024-02-13T10:56:56.190Z,75.52
2024-02-13T10:59:29.297Z,81.01
2024-02-13T11:02:00.133Z,82.15
2024-02-13T11:04:31.398Z,72.67
2024-02-13T11:06:59.778Z,82.61
2024-02-13T11:09:26.685Z,77.73
2024-02-13T11:11:53.443Z,76.35
2024-02-13T11:14:26.460Z,84.14
2024-02-13T11:17:10.433Z,72.75
2024-02-13T11:19:42.482Z,73.80
2024-02-13T11:22:13.564Z,73.34
2024-02-13T11:24:50.283Z,75.63
2024-02-13T11:27:26.856Z,84.95
2024-02-13T11:30:00.682Z,69.96
2024-02-13T11:32:33.156Z,87.51
2024-02-13T11:35:00.538Z,72.21
2024-02-13T11:37:31.458Z,68.59
2024-02-13T11:39:58.857Z,70.80
2024-02-13T11:42:33.633Z,66.23
2024-02-13T11:45:01.735Z,67.71
2024-02-13T11:47:28.557Z,61.14
2024-02-13T11:52:24.417Z,62.45
2024-02-13T11:54:51.775Z,68.85
2024-02-13T11:57:26.471Z,59.20
2024-02-13T12:00:05.384Z,56.14
2024-02-13T12:02:34.527Z,62.87
2024-02-13T12:05:01.494Z,71.37
2024-02-13T12:07:29.074Z,59.32
2024-02-13T12:09:56.120Z,64.77
2024-02-13T12:12:25.529Z,67.91
2024-02-13T12:14:53.856Z,68.91
2024-02-13T12:17:22.372Z,66.96
2024-02-13T12:19:49.589Z,65.12
2024-02-13T12:22:17.950Z,59.49
2024-02-13T12:24:46.613Z,57.55
2024-02-13T12:27:16.768Z,64.62
2024-02-13T12:29:49.074Z,61.00
2024-02-13T12:32:21.401Z,65.88
2024-02-13T12:34:49.941Z,52.47
2024-02-13T12:37:18.565Z,61.84
2024-02-13T12:39:47.866Z,62.70
2024-02-13T12:42:14.810Z,61.41
2024-02-13T12:44:45.154Z,61.49
2024-02-13T12:47:15.013Z,65.58
2024-02-13T12:49:47.800Z,54.13
2024-02-13T12:52:23.452Z,58.26
2024-02-13T12:54:50.992Z,57.37
2024-02-13T12:57:18.265Z,59.98
2024-02-13T12:59:45.676Z,61.43
2024-02-13T13:02:14.799Z,60.37
2024-02-13T13:04:43.985Z,57.29
2024-02-13T13:07:15.656Z,57.83
2024-02-13T13:09:43.930Z,52.46
2024-02-13T13:12:13.567Z,55.28
2024-02-13T13:14:45.405Z,57.32
2024-02-13T13:17:12.414Z,52.50
2024-02-13T13:19:39.099Z,56.64
2024-02-13T13:22:06.680Z,57.63
2024-02-13T13:24:34.126Z,56.30
2024-02-13T13:27:02.078Z,54.75
2024-02-13T13:29:30.748Z,54.78
2024-02-13T13:31:57.325Z,55.74
2024-02-13T13:34:29.254Z,59.79
2024-02-13T13:36:56.303Z,51.60
2024-02-13T13:39:30.196Z,50.80
2024-02-13T13:42:09.654Z,52.30
2024-02-13T13:44:36.745Z,52.47
2024-02-13T13:47:06.114Z,48.85
2024-02-13T13:49:32.706Z,51.56
2024-02-13T13:51:59.328Z,52.31
2024-02-13T13:54:25.939Z,50.74
2024-02-13T13:56:52.481Z,55.20
2024-02-13T13:59:21.290Z,53.43
2024-02-13T14:01:47.856Z,52.83
2024-02-13T14:04:16.673Z,51.82
2024-02-13T14:06:43.287Z,50.02
2024-02-13T14:09:09.978Z,52.28
2024-02-13T14:11:38.952Z,54.89
2024-02-13T14:14:08.357Z,50.65
2024-02-13T14:16:34.833Z,51.42
2024-02-13T14:19:01.442Z,49.16
2024-02-13T14:21:33.103Z,47.49
2024-02-13T14:23:59.822Z,54.74
2024-02-13T14:26:26.794Z,53.02
2024-02-13T14:28:53.257Z,54.89
2024-02-13T14:31:19.788Z,50.85
2024-02-13T14:33:46.597Z,51.49
2024-02-13T14:36:15.421Z,50.18
2024-02-13T14:38:42.139Z,53.24
2024-02-13T14:41:09.551Z,48.21
2024-02-13T14:43:38.469Z,55.37
2024-02-13T14:46:06.040Z,54.41
2024-02-13T14:48:34.959Z,54.45
2024-02-13T14:51:04.212Z,53.25
2024-02-13T14:53:33.050Z,53.25
2024-02-13T14:56:02.115Z,52.99
2024-02-13T14:58:38.228Z,53.33
2024-02-13T15:01:10.263Z,56.97
2024-02-13T15:03:37.423Z,53.79
2024-02-13T15:06:06.609Z,57.30
2024-02-13T15:08:35.542Z,56.21
2024-02-13T15:11:04.578Z,56.08
2024-02-13T15:13:31.183Z,60.12
2024-02-13T15:16:00.785Z,55.96
2024-02-13T15:18:28.712Z,59.12
2024-02-13T15:20:57.599Z,60.70
2024-02-13T15:23:28.994Z,54.87
2024-02-13T15:25:56.251Z,55.98
2024-02-13T15:28:23.422Z,60.38
2024-02-13T15:30:52.492Z,60.39
2024-02-13T15:33:22.540Z,60.64
2024-02-13T15:36:06.682Z,60.43
2024-02-13T15:38:52.243Z,57.53
2024-02-13T15:41:37.492Z,59.02
2024-02-13T15:44:24.826Z,59.13
2024-02-13T15:46:59.460Z,63.28
2024-02-13T15:49:26.328Z,65.58
2024-02-13T15:51:53.521Z,57.13
2024-02-13T15:54:20.010Z,62.79
2024-02-13T15:56:50.556Z,59.10
2024-02-13T15:59:19.627Z,58.10
2024-02-13T16:01:48.904Z,66.24
2024-02-13T16:04:21.596Z,62.79
2024-02-13T16:06:55.865Z,64.21
2024-02-13T16:09:22.627Z,65.94
2024-02-13T16:11:49.538Z,64.92
2024-02-13T16:14:17.775Z,60.29
2024-02-13T16:16:44.319Z,60.30
2024-02-13T16:19:14.086Z,60.94
2024-02-13T16:21:45.542Z,61.41
2024-02-13T16:24:14.331Z,63.07
2024-02-13T16:26:43.145Z,68.03
2024-02-13T16:29:09.625Z,69.33
2024-02-13T16:31:36.504Z,67.14
2024-02-13T16:34:03.255Z,61.42
2024-02-13T16:36:29.820Z,64.94
2024-02-13T16:38:56.387Z,65.87
2024-02-13T16:41:22.981Z,63.07
2024-02-13T16:43:50.304Z,67.72
2024-02-13T16:46:22.488Z,72.05
2024-02-13T16:48:53.204Z,66.68
2024-02-13T16:51:24.159Z,71.91
2024-02-13T16:53:50.874Z,73.30
2024-02-13T16:56:18.286Z,73.84
2024-02-13T16:58:45.259Z,66.78
2024-02-13T17:01:12.185Z,70.29
2024-02-13T17:03:39.430Z,70.46
2024-02-13T17:06:07.392Z,76.01
2024-02-13T17:08:40.387Z,76.37
2024-02-13T17:11:10.405Z,70.58
2024-02-13T17:13:37.185Z,75.27
2024-02-13T17:16:03.810Z,77.20
2024-02-13T17:18:31.028Z,76.67
2024-02-13T17:20:59.838Z,75.61
2024-02-13T17:23:26.327Z,78.13
2024-02-13T17:25:52.914Z,78.26
2024-02-13T17:28:21.768Z,78.06
2024-02-13T17:30:52.087Z,77.04
2024-02-13T17:33:19.349Z,78.44
2024-02-13T17:35:46.113Z,78.21
2024-02-13T17:38:15.173Z,78.17
2024-02-13T17:40:41.858Z,78.63
2024-02-13T17:43:15.873Z,78.82
2024-02-13T17:45:44.978Z,79.09
2024-02-13T17:48:11.530Z,78.66
2024-02-13T17:50:38.256Z,79.32
2024-02-13T17:53:04.962Z,79.38
2024-02-13T17:55:31.430Z,78.81
2024-02-13T17:57:58.441Z,78.67
2024-02-13T18:00:30.512Z,79.33
2024-02-13T18:02:58.528Z,80.24
2024-02-13T18:05:25.138Z,80.26
2024-02-13T18:07:54.250Z,80.19
2024-02-13T18:10:20.747Z,79.53
2024-02-13T18:12:52.222Z,79.83
2024-02-13T18:15:18.761Z,76.37
2024-02-13T18:17:49.874Z,77.02
2024-02-13T18:20:17.022Z,78.83
2024-02-13T18:22:45.383Z,80.33
2024-02-13T18:25:12.087Z,80.78
2024-02-13T18:27:41.077Z,81.08
2024-02-13T18:30:08.762Z,80.21
2024-02-13T18:32:37.761Z,79.95
2024-02-13T18:35:04.504Z,79.40
2024-02-13T18:37:33.326Z,81.47
2024-02-13T18:39:59.857Z,80.19
2024-02-13T18:42:28.860Z,81.65
2024-02-13T18:44:57.223Z,82.66
2024-02-13T18:47:23.845Z,81.82
2024-02-13T18:49:53.541Z,83.31
2024-02-13T18:52:20.090Z,83.36
2024-02-13T18:54:49.093Z,85.17
2024-02-13T18:57:15.578Z,84.50
2024-02-13T18:59:45.141Z,84.64
2024-02-13T19:02:11.727Z,84.39
2024-02-13T19:04:39.846Z,86.08
2024-02-13T19:07:06.496Z,87.40
2024-02-13T19:09:33.032Z,88.36
2024-02-13T19:11:59.719Z,89.88
2024-02-13T19:14:26.430Z,89.40
2024-02-13T19:16:54.204Z,88.50
2024-02-13T19:19:22.878Z,88.31
2024-02-13T19:21:49.423Z,86.97
2024-02-13T19:24:16.180Z,88.03
2024-02-13T19:26:44.910Z,88.42
2024-02-13T19:29:11.477Z,88.28
2024-02-13T19:31:37.989Z,89.22
2024-02-13T19:34:04.661Z,87.83
2024-02-13T19:36:32.460Z,87.63
2024-02-13T19:39:02.755Z,89.03
2024-02-13T19:41:32.238Z,88.69
2024-02-13T19:43:59.712Z,88.09
2024-02-13T19:46:31.026Z,89.08
2024-02-13T19:48:57.782Z,88.67
2024-02-13T19:51:24.828Z,87.79
2024-02-13T19:53:52.623Z,87.53
2024-02-13T19:56:19.293Z,88.17
2024-02-13T19:58:45.902Z,87.92
2024-02-13T20:01:12.776Z,87.92
2024-02-13T20:03:40.167Z,87.71
2024-02-13T20:06:09.314Z,86.25
2024-02-13T20:08:36.813Z,86.78
2024-02-13T20:11:03.862Z,87.11
2024-02-13T20:13:36.999Z,86.61
2024-02-13T20:16:04.167Z,86.55
2024-02-13T20:18:33.986Z,88.56
2024-02-13T20:21:00.704Z,88.42
2024-02-13T20:23:28.076Z,88.21
2024-02-13T20:25:54.643Z,87.74
2024-02-13T20:28:23.244Z,88.03
2024-02-13T20:30:49.703Z,89.05
2024-02-13T20:33:18.812Z,88.94
2024-02-13T20:36:02.824Z,88.32
2024-02-13T20:38:31.663Z,87.67
2024-02-13T20:40:58.731Z,89.30
2024-02-13T20:43:27.948Z,87.25
2024-02-13T20:45:54.701Z,87.66
2024-02-13T20:48:22.338Z,86.53
2024-02-13T20:50:49.036Z,89.48
2024-02-13T20:53:15.819Z,89.89
2024-02-13T20:55:42.423Z,89.57
2024-02-13T20:58:09.051Z,88.36
2024-02-13T21:00:36.395Z,91.23
2024-02-13T21:03:05.481Z,92.04
2024-02-13T21:05:32.762Z,93.93
2024-02-13T21:08:01.313Z,94.45
2024-02-13T21:10:28.587Z,97.14
2024-02-13T21:12:57.977Z,97.78
2024-02-13T21:15:26.755Z,97.19
2024-02-13T21:17:55.503Z,97.22
2024-02-13T21:20:30.662Z,96.36
2024-02-13T21:23:15.998Z,92.16
2024-02-13T21:25:44.966Z,90.76
2024-02-13T21:28:11.400Z,89.80
2024-02-13T21:30:40.479Z,88.39
2024-02-13T21:33:08.517Z,90.24
2024-02-13T21:35:35.315Z,92.83
2024-02-13T21:38:03.346Z,92.92
2024-02-13T21:40:30.572Z,96.95
2024-02-13T21:42:57.036Z,97.18
2024-02-13T21:45:27.783Z,97.83
2024-02-13T21:47:54.941Z,99.94
2024-02-13T21:50:25.611Z,100.00
2024-02-13T21:52:52.180Z,96.47
2024-02-13T21:55:18.772Z,94.28
2024-02-13T21:57:48.224Z,93.55
2024-02-13T22:00:15.363Z,94.30
2024-02-13T22:02:42.281Z,92.49
2024-02-13T22:05:08.953Z,91.29
2024-02-13T22:07:38.991Z,91.26
2024-02-13T22:10:06.717Z,91.60
2024-02-13T22:12:33.223Z,94.40
2024-02-13T22:14:59.806Z,92.59
2024-02-13T22:17:26.405Z,97.18
2024-02-13T22:19:57.778Z,96.99
2024-02-13T22:22:24.321Z,94.59
2024-02-13T22:24:51.678Z,94.66
2024-02-13T22:27:21.447Z,99.24
2024-02-13T22:29:50.371Z,94.64
2024-02-13T22:32:18.335Z,92.91
2024-02-13T22:34:47.617Z,96.11
2024-02-13T22:37:16.565Z,96.71
2024-02-13T22:39:43.783Z,93.79
2024-02-13T22:42:12.690Z,93.44
2024-02-13T22:44:39.761Z,97.55
2024-02-13T22:47:09.811Z,99.17
2024-02-13T22:49:38.592Z,99.07
2024-02-13T22:52:05.183Z,95.16
2024-02-13T22:54:33.970Z,93.82
2024-02-13T22:57:00.767Z,93.09
2024-02-13T22:59:27.347Z,92.73
2024-02-13T23:01:55.020Z,92.95
2024-02-13T23:04:21.762Z,96.35
2024-02-13T23:06:50.926Z,96.37
2024-02-13T23:09:18.014Z,95.66
2024-02-13T23:11:48.651Z,95.63
2024-02-13T23:14:15.595Z,95.13
2024-02-13T23:16:46.891Z,100.00
2024-02-13T23:19:16.150Z,98.14
2024-02-13T23:21:47.540Z,96.64
2024-02-13T23:24:14.294Z,96.47
2024-02-13T23:26:41.361Z,94.28
2024-02-13T23:29:08.135Z,94.48
2024-02-13T23:31:34.605Z,93.50
2024-02-13T23:34:04.373Z,94.08
2024-02-13T23:36:30.972Z,95.10
2024-02-13T23:38:57.584Z,98.76
2024-02-13T23:41:26.434Z,99.30
2024-02-13T23:43:52.921Z,96.04
2024-02-13T23:46:21.760Z,96.25
2024-02-13T23:48:48.422Z,94.50
2024-02-13T23:51:18.061Z,94.21
2024-02-13T23:53:52.729Z,94.80
2024-02-13T23:56:19.448Z,96.03
2024-02-13T23:58:47.524Z,95.84
